Time;durP1;ratioP1;P1;durP2;ratioP2;P2;SDS_P1;SDS_P2;PMS_P1;PMS_P2;Temp;Humidity;BMP_temperature;BMP_pressure;BME280_temperature;BME280_humidity;BME280_pressure;Samples;Min_cycle;Max_cycle;Signal;HPM_P1;HPM_P2
2023/01/26 00:00:04;;;;;;;110.17;37.63;;;;;;;-1.30;100.00;102526.16;5012163;28;20256;-73
2023/01/26 00:02:30;;;;;;;106.33;36.77;;;;;;;-1.30;100.00;102529.59;5005272;28;20191;-73
2023/01/26 00:04:55;;;;;;;107.10;34.90;;;;;;;-1.29;100.00;102528.84;5008630;28;20731;-73
2023/01/26 00:07:21;;;;;;;110.90;36.23;;;;;;;-1.28;100.00;102530.59;5010775;28;20191;-74
2023/01/26 00:09:47;;;;;;;109.47;36.43;;;;;;;-1.25;100.00;102535.00;5001494;28;20211;-74
2023/01/26 00:12:13;;;;;;;108.07;36.70;;;;;;;-1.23;100.00;102523.50;5010062;28;20278;-74
2023/01/26 00:14:50;;;;;;;105.33;35.17;;;;;;;-1.22;100.00;102527.78;5007130;28;20698;-74
2023/01/26 00:17:24;;;;;;;109.90;34.90;;;;;;;-1.25;100.00;102530.00;5006823;28;20277;-74
2023/01/26 00:19:53;;;;;;;103.27;33.87;;;;;;;-1.23;100.00;102526.00;5007099;28;20187;-74
2023/01/26 00:22:18;;;;;;;96.97;32.73;;;;;;;-1.27;100.00;102517.31;5006943;28;20641;-75
2023/01/26 00:24:44;;;;;;;108.53;35.73;;;;;;;-1.26;100.00;102526.63;5005217;28;20220;-75
2023/01/26 00:27:09;;;;;;;107.63;34.40;;;;;;;-1.26;100.00;102520.69;5010605;28;20294;-74
2023/01/26 00:29:35;;;;;;;107.80;34.10;;;;;;;-1.26;100.00;102521.59;4994346;28;20203;-72
2023/01/26 00:32:00;;;;;;;101.50;34.67;;;;;;;-1.25;100.00;102515.81;5026562;28;20202;-74
2023/01/26 00:34:25;;;;;;;98.30;33.83;;;;;;;-1.28;100.00;102508.00;5010146;28;20242;-72
2023/01/26 00:36:51;;;;;;;104.00;35.03;;;;;;;-1.25;100.00;102504.88;5011498;28;20631;-74
2023/01/26 00:39:17;;;;;;;91.23;32.87;;;;;;;-1.27;100.00;102503.88;5019064;28;20724;-75
2023/01/26 00:44:26;;;;;;;106.93;34.17;;;;;;;-1.27;100.00;102502.25;5009707;28;20207;-74
2023/01/26 00:46:52;;;;;;;99.43;31.67;;;;;;;-1.26;100.00;102496.47;5013173;28;20203;-74
2023/01/26 00:49:17;;;;;;;96.60;32.03;;;;;;;-1.23;100.00;102491.72;5011693;28;20217;-74
2023/01/26 00:51:43;;;;;;;105.77;34.57;;;;;;;-1.22;100.00;102487.59;5010030;28;20842;-74
2023/01/26 00:54:08;;;;;;;104.70;34.27;;;;;;;-1.27;100.00;102487.19;5010411;28;20695;-73
2023/01/26 00:56:34;;;;;;;115.37;36.27;;;;;;;-1.24;100.00;102484.91;5006175;28;20327;-74
2023/01/26 00:58:59;;;;;;;105.17;34.70;;;;;;;-1.23;100.00;102481.66;5006493;28;20233;-74
2023/01/26 01:01:25;;;;;;;103.83;33.23;;;;;;;-1.23;100.00;102469.09;5005951;28;20250;-74
2023/01/26 01:03:51;;;;;;;103.60;32.70;;;;;;;-1.22;100.00;102470.00;5005855;28;20200;-74
2023/01/26 01:06:17;;;;;;;111.13;33.23;;;;;;;-1.24;100.00;102469.00;5008463;28;20245;-74
2023/01/26 01:08:42;;;;;;;103.90;32.87;;;;;;;-1.23;100.00;102463.22;5008289;28;20203;-74
2023/01/26 01:11:10;;;;;;;105.83;32.90;;;;;;;-1.23;100.00;102468.25;5012164;28;20741;-74
2023/01/26 01:13:37;;;;;;;107.03;35.27;;;;;;;-1.25;100.00;102464.69;5005939;28;20353;-74
2023/01/26 01:16:07;;;;;;;103.30;35.37;;;;;;;-1.24;100.00;102462.31;5006754;28;20202;-74
2023/01/26 01:18:33;;;;;;;114.00;35.73;;;;;;;-1.24;100.00;102462.31;5001207;28;20227;-75
2023/01/26 01:20:58;;;;;;;103.80;33.77;;;;;;;-1.27;100.00;102462.06;5008915;28;20230;-74
2023/01/26 01:23:27;;;;;;;109.77;34.00;;;;;;;-1.26;100.00;102463.81;5007946;28;20217;-74
2023/01/26 01:25:58;;;;;;;107.57;35.47;;;;;;;-1.28;100.00;102462.78;5024330;28;20194;-72
2023/01/26 01:28:24;;;;;;;107.47;35.13;;;;;;;-1.28;100.00;102462.78;5008605;28;20187;-74
2023/01/26 01:30:50;;;;;;;108.30;34.10;;;;;;;-1.27;100.00;102462.06;5010210;28;20203;-74
2023/01/26 01:33:15;;;;;;;109.97;33.30;;;;;;;-1.26;100.00;102460.41;5010743;28;20585;-74
2023/01/26 01:35:41;;;;;;;112.80;33.80;;;;;;;-1.23;100.00;102461.56;5011354;28;20187;-72
2023/01/26 01:38:06;;;;;;;106.33;34.57;;;;;;;-1.23;100.00;102465.72;5008421;28;20627;-74
2023/01/26 01:40:32;;;;;;;107.57;35.37;;;;;;;-1.24;100.00;102458.94;5006162;28;20210;-74
2023/01/26 01:42:57;;;;;;;100.23;33.60;;;;;;;-1.24;100.00;102457.28;5010790;28;20194;-75
2023/01/26 01:45:26;;;;;;;104.00;35.33;;;;;;;-1.21;100.00;102459.19;5006525;28;20195;-72
2023/01/26 01:47:55;;;;;;;111.73;33.43;;;;;;;-1.21;100.00;102462.59;5007182;28;20203;-72
2023/01/26 01:50:21;;;;;;;102.23;34.67;;;;;;;-1.19;100.00;102463.63;5011254;28;20198;-74
2023/01/26 01:52:47;;;;;;;106.67;33.17;;;;;;;-1.20;100.00;102459.34;5009590;28;20191;-74
2023/01/26 01:55:15;;;;;;;96.07;32.73;;;;;;;-1.17;100.00;102454.63;5007791;28;20218;-72
2023/01/26 01:57:57;;;;;;;111.97;35.30;;;;;;;-1.13;100.00;102458.28;5011103;28;20191;-72
2023/01/26 02:00:23;;;;;;;117.50;36.50;;;;;;;-1.12;100.00;102457.53;5000334;28;20691;-72
2023/01/26 02:03:14;;;;;;;104.40;31.90;;;;;;;-1.10;100.00;102451.03;5014341;28;20301;-72
2023/01/26 02:05:59;;;;;;;109.20;33.40;;;;;;;-1.11;100.00;102446.72;5007018;28;20590;-74
2023/01/26 02:08:30;;;;;;;108.50;34.13;;;;;;;-1.13;100.00;102443.22;5006839;28;20199;-74
2023/01/26 02:11:01;;;;;;;111.50;34.40;;;;;;;-1.12;100.00;102440.84;5026884;28;20245;-74
2023/01/26 02:13:28;;;;;;;104.97;33.47;;;;;;;-1.10;100.00;102439.34;5020244;28;20216;-74
2023/01/26 02:15:54;;;;;;;113.00;36.40;;;;;;;-1.07;100.00;102432.09;5006060;28;20254;-74
2023/01/26 02:18:19;;;;;;;110.77;34.63;;;;;;;-1.06;100.00;102436.34;5006028;28;20202;-74
2023/01/26 02:21:40;;;;;;;122.17;36.47;;;;;;;-1.06;100.00;102432.97;5047922;22;20227;-81
2023/01/26 02:24:46;;;;;;;113.30;36.73;;;;;;;-1.05;100.00;102429.72;4953984;28;20628;-84
2023/01/26 02:27:45;;;;;;;120.33;36.97;;;;;;;-1.05;100.00;102425.56;4968892;28;20203;-82
2023/01/26 02:30:38;;;;;;;117.67;36.07;;;;;;;-1.03;100.00;102433.22;4986525;28;20246;-84
2023/01/26 02:33:29;;;;;;;119.47;36.67;;;;;;;-1.05;100.00;102434.75;4977244;23;20232;-80
2023/01/26 02:36:01;;;;;;;125.37;38.20;;;;;;;-1.01;100.00;102426.75;4962244;28;20967;-80
2023/01/26 02:38:39;;;;;;;111.00;35.33;;;;;;;-1.01;100.00;102424.22;4952736;28;20239;-80
2023/01/26 02:41:11;;;;;;;111.60;35.53;;;;;;;-0.99;100.00;102422.72;4953393;28;20224;-81
2023/01/26 02:43:38;;;;;;;125.00;37.10;;;;;;;-0.99;100.00;102420.22;4957380;28;20195;-83
2023/01/26 02:46:03;;;;;;;118.87;34.37;;;;;;;-1.00;100.00;102413.41;4951941;28;20192;-82
2023/01/26 02:51:16;;;;;;;123.07;35.57;;;;;;;-1.01;100.00;102399.09;4944935;28;20247;-80
2023/01/26 02:53:42;;;;;;;131.80;39.63;;;;;;;-1.02;100.00;102402.31;4951717;28;21038;-80
2023/01/26 02:56:07;;;;;;;124.07;36.60;;;;;;;-1.03;100.00;102406.50;4928920;28;20204;-80
2023/01/26 02:58:33;;;;;;;121.37;36.23;;;;;;;-1.03;100.00;102413.13;4948259;28;20678;-80
2023/01/26 03:00:58;;;;;;;131.50;37.10;;;;;;;-0.99;100.00;102408.53;4948281;28;20213;-81
2023/01/26 03:03:40;;;;;;;129.13;37.17;;;;;;;-1.00;100.00;102390.81;4935920;28;20241;-80
2023/01/26 03:06:08;;;;;;;108.53;35.17;;;;;;;-1.00;100.00;102398.34;4938480;28;20220;-81
2023/01/26 03:08:34;;;;;;;118.40;34.30;;;;;;;-0.98;100.00;102387.69;4946638;28;20204;-82
2023/01/26 03:10:59;;;;;;;120.40;36.30;;;;;;;-0.97;100.00;102381.00;4955607;28;20243;-81
2023/01/26 03:13:24;;;;;;;121.80;35.63;;;;;;;-0.93;100.00;102390.59;4960970;28;20588;-80
2023/01/26 03:15:53;;;;;;;124.17;33.97;;;;;;;-0.96;100.00;102388.69;4941821;28;20208;-81
2023/01/26 03:29:27;;;;;;;116.13;32.53;;;;;;;-0.94;100.00;102376.25;4962686;28;20279;-79
2023/01/26 03:31:58;;;;;;;114.37;34.57;;;;;;;-0.95;100.00;102382.03;4949345;28;20205;-81
2023/01/26 03:34:24;;;;;;;113.40;33.00;;;;;;;-0.97;100.00;102384.41;4959354;28;20206;-82
2023/01/26 03:36:49;;;;;;;124.87;34.60;;;;;;;-0.98;100.00;102381.75;4961415;28;20279;-82
2023/01/26 03:58:32;;;;;;;116.03;33.33;;;;;;;-0.92;100.00;102388.22;4957577;28;20284;-80
2023/01/26 04:00:58;;;;;;;116.37;34.37;;;;;;;-0.91;100.00;102384.94;4954383;28;20209;-82
2023/01/26 04:08:51;;;;;;;115.17;34.33;;;;;;;-0.89;100.00;102377.56;4955377;28;20197;-81
2023/01/26 04:11:18;;;;;;;133.83;36.07;;;;;;;-0.88;100.00;102389.38;4941922;28;20281;-80
2023/01/26 04:22:00;;;;;;;119.57;35.07;;;;;;;-0.88;100.00;102382.72;4957300;28;20849;-80
2023/01/26 04:24:26;;;;;;;120.63;36.13;;;;;;;-0.87;100.00;102371.91;4948222;28;20201;-81
2023/01/26 04:26:54;;;;;;;123.07;36.03;;;;;;;-0.88;100.00;102366.75;4943815;28;20200;-81
2023/01/26 04:29:24;;;;;;;122.83;35.27;;;;;;;-0.88;100.00;102367.63;4943294;28;20740;-81
2023/01/26 04:31:50;;;;;;;123.87;35.30;;;;;;;-0.85;100.00;102362.91;4941411;28;20297;-80
2023/01/26 04:34:18;;;;;;;132.70;36.40;;;;;;;-0.87;100.00;102368.53;4940707;28;20220;-80
2023/01/26 04:36:44;;;;;;;124.27;35.80;;;;;;;-0.88;100.00;102367.63;4956207;28;20266;-81
2023/01/26 04:39:09;;;;;;;132.30;35.97;;;;;;;-0.84;100.00;102368.78;4938627;28;20271;-80
2023/01/26 04:41:37;;;;;;;132.90;35.73;;;;;;;-0.82;100.00;102364.78;4953639;28;20200;-81
2023/01/26 04:44:07;;;;;;;118.93;34.67;;;;;;;-0.81;100.00;102359.00;4959231;28;20764;-80
2023/01/26 04:46:33;;;;;;;127.87;35.67;;;;;;;-0.85;100.00;102352.84;4942294;29;20236;-80
2023/01/26 04:48:59;;;;;;;121.70;35.73;;;;;;;-0.80;100.00;102351.63;4947506;28;20287;-81
2023/01/26 04:51:25;;;;;;;121.43;35.47;;;;;;;-0.81;100.00;102343.94;4938469;28;20316;-79
2023/01/26 04:53:50;;;;;;;116.20;35.07;;;;;;;-0.79;100.00;102342.41;4941247;28;20206;-80
2023/01/26 04:56:24;;;;;;;133.37;35.07;;;;;;;-0.77;100.00;102348.47;4954617;28;20567;-80
2023/01/26 04:58:51;;;;;;;123.13;34.97;;;;;;;-0.77;100.00;102340.94;4943246;28;20687;-79
2023/01/26 05:01:17;;;;;;;123.37;35.70;;;;;;;-0.79;100.00;102342.41;4958708;28;20303;-80
2023/01/26 05:03:43;;;;;;;127.37;37.10;;;;;;;-0.79;100.00;102348.34;4960067;28;20721;-80
2023/01/26 05:06:10;;;;;;;134.30;37.20;;;;;;;-0.76;100.00;102348.63;4942232;28;20758;-80
2023/01/26 05:08:37;;;;;;;128.53;37.07;;;;;;;-0.73;100.00;102342.97;4953451;28;20194;-81
2023/01/26 05:11:03;;;;;;;131.77;36.53;;;;;;;-0.77;100.00;102343.47;4962663;28;20244;-81
2023/01/26 05:13:42;;;;;;;133.67;37.33;;;;;;;-0.76;100.00;102337.69;4960241;28;20224;-82
2023/01/26 05:16:21;;;;;;;122.13;35.53;;;;;;;-0.77;100.00;102340.94;4956201;28;20201;-82
2023/01/26 05:19:06;;;;;;;130.67;36.83;;;;;;;-0.79;100.00;102335.78;4965027;28;20363;-82
2023/01/26 05:21:49;;;;;;;143.13;36.87;;;;;;;-0.77;100.00;102340.94;4962398;28;20203;-82
2023/01/26 05:24:15;;;;;;;135.33;36.13;;;;;;;-0.77;100.00;102341.81;4943627;28;20189;-82
2023/01/26 05:29:51;;;;;;;131.93;35.20;;;;;;;-0.72;100.00;102345.59;4949672;28;20321;-82
2023/01/26 05:32:17;;;;;;;127.37;36.33;;;;;;;-0.68;100.00;102341.75;4951515;28;20291;-81
2023/01/26 05:34:43;;;;;;;128.10;34.90;;;;;;;-0.66;100.00;102331.06;4946014;28;20205;-82
2023/01/26 05:37:09;;;;;;;108.20;33.63;;;;;;;-0.65;100.00;102335.34;4940522;28;20697;-81
2023/01/26 05:39:37;;;;;;;128.37;34.27;;;;;;;-0.63;100.00;102332.97;4949450;28;20695;-81
2023/01/26 05:42:04;;;;;;;118.47;33.80;;;;;;;-0.64;100.00;102336.25;4960101;28;20192;-80
2023/01/26 05:44:56;;;;;;;122.37;34.43;;;;;;;-0.61;100.00;102333.97;4962267;28;20217;-82
2023/01/26 05:47:22;;;;;;;122.47;34.37;;;;;;;-0.64;100.00;102334.59;4959906;28;20196;-80
2023/01/26 05:49:49;;;;;;;124.70;36.57;;;;;;;-0.63;100.00;102328.81;4943468;28;20209;-80
2023/01/26 05:52:19;;;;;;;130.73;35.07;;;;;;;-0.60;100.00;102338.25;4935024;28;20198;-80
2023/01/26 05:54:46;;;;;;;125.57;34.47;;;;;;;-0.60;100.00;102338.25;4956118;28;20201;-80
2023/01/26 05:57:12;;;;;;;116.20;33.50;;;;;;;-0.63;100.00;102341.38;4955282;28;20283;-80
2023/01/26 05:59:42;;;;;;;117.43;33.63;;;;;;;-0.64;100.00;102339.63;4941685;28;20209;-81
2023/01/26 06:02:11;;;;;;;116.13;34.50;;;;;;;-0.62;100.00;102347.31;4947375;28;20198;-81
2023/01/26 06:04:37;;;;;;;125.87;34.20;;;;;;;-0.59;100.00;102345.06;4950562;28;20185;-80
2023/01/26 06:07:03;;;;;;;116.53;34.37;;;;;;;-0.58;100.00;102342.69;4962745;28;20214;-80
2023/01/26 06:09:35;;;;;;;118.30;35.27;;;;;;;-0.60;100.00;102340.75;4952365;28;20205;-80
2023/01/26 06:12:01;;;;;;;125.77;35.90;;;;;;;-0.62;100.00;102340.66;4979742;28;20200;-80
2023/01/26 06:14:40;;;;;;;135.93;37.83;;;;;;;-0.61;100.00;102344.94;4938363;28;20892;-80
2023/01/26 06:17:06;;;;;;;122.60;35.50;;;;;;;-0.59;100.00;102343.41;4947611;28;20215;-81
2023/01/26 06:19:32;;;;;;;126.10;34.87;;;;;;;-0.55;100.00;102347.09;4927261;28;20225;-81
2023/01/26 06:22:00;;;;;;;115.80;33.73;;;;;;;-0.53;100.00;102348.09;4947222;28;20254;-81
2023/01/26 06:24:25;;;;;;;117.27;34.47;;;;;;;-0.55;100.00;102345.44;4942430;28;20192;-80
2023/01/26 06:26:51;;;;;;;118.03;37.10;;;;;;;-0.57;100.00;102349.47;4941901;28;20236;-80
2023/01/26 06:29:17;;;;;;;120.97;34.13;;;;;;;-0.53;100.00;102356.53;4946004;28;20223;-81
2023/01/26 06:31:43;;;;;;;124.53;36.87;;;;;;;-0.54;100.00;102354.75;4948734;28;20700;-81
2023/01/26 06:34:10;;;;;;;123.67;34.30;;;;;;;-0.54;100.00;102354.75;4940964;28;20341;-81
2023/01/26 06:36:40;;;;;;;115.80;33.67;;;;;;;-0.52;100.00;102357.41;4954077;28;20190;-81
2023/01/26 06:39:11;;;;;;;112.33;34.63;;;;;;;-0.52;100.00;102360.81;4952390;28;20192;-82
2023/01/26 06:41:36;;;;;;;114.93;34.27;;;;;;;-0.54;100.00;102358.91;4949351;28;20589;-80
2023/01/26 06:44:02;;;;;;;123.03;36.20;;;;;;;-0.53;100.00;102359.06;4963024;28;20188;-81
2023/01/26 06:46:28;;;;;;;114.03;33.80;;;;;;;-0.51;100.00;102349.09;4935764;28;20259;-81
2023/01/26 06:48:53;;;;;;;118.43;33.37;;;;;;;-0.53;100.00;102356.53;4944353;28;20198;-81
2023/01/26 06:51:19;;;;;;;119.13;35.37;;;;;;;-0.53;100.00;102359.06;4945633;28;20216;-80
2023/01/26 06:53:56;;;;;;;110.90;32.87;;;;;;;-0.47;100.00;102364.63;4944565;28;20241;-80
2023/01/26 06:56:38;;;;;;;109.30;30.10;;;;;;;-0.47;100.00;102367.13;4950777;28;20647;-82
2023/01/26 06:59:27;;;;;;;106.13;32.67;;;;;;;-0.43;100.00;102359.09;4954167;28;20312;-82
2023/01/26 07:02:20;;;;;;;109.33;32.73;;;;;;;-0.44;100.00;102364.88;4953262;28;20197;-83
2023/01/26 07:04:47;;;;;;;104.90;31.67;;;;;;;-0.44;100.00;102358.97;4951568;28;20693;-82
2023/01/26 07:07:12;;;;;;;96.90;30.53;;;;;;;-0.45;100.00;102365.63;4943624;28;20189;-83
2023/01/26 07:09:38;;;;;;;104.90;31.97;;;;;;;-0.41;100.00;102372.69;4952303;28;20267;-80
2023/01/26 07:12:04;;;;;;;111.40;31.37;;;;;;;-0.42;100.00;102363.38;4959649;28;20571;-80
2023/01/26 07:14:31;;;;;;;108.53;32.47;;;;;;;-0.39;100.00;102370.31;4933129;28;20225;-80
2023/01/26 07:16:56;;;;;;;107.13;32.23;;;;;;;-0.38;100.00;102367.94;4933740;28;20201;-80
2023/01/26 07:19:22;;;;;;;107.30;31.67;;;;;;;-0.38;100.00;102367.94;4943823;28;20221;-80
2023/01/26 07:21:47;;;;;;;95.20;31.67;;;;;;;-0.38;100.00;102367.03;4952971;28;20199;-81
2023/01/26 07:24:13;;;;;;;103.23;31.40;;;;;;;-0.35;100.00;102369.81;4977318;28;20202;-83
2023/01/26 07:26:38;;;;;;;104.87;32.20;;;;;;;-0.35;100.00;102373.25;4937540;29;20221;-80
2023/01/26 07:29:04;;;;;;;98.73;32.43;;;;;;;-0.34;100.00;102366.56;4958509;28;20212;-82
2023/01/26 07:31:29;;;;;;;101.90;31.53;;;;;;;-0.34;100.00;102369.97;4953514;28;20275;-82
2023/01/26 07:33:55;;;;;;;107.83;32.53;;;;;;;-0.34;100.00;102369.06;4959698;28;20209;-81
2023/01/26 07:36:20;;;;;;;104.03;32.57;;;;;;;-0.36;100.00;102368.94;4946730;28;20196;-81
2023/01/26 07:38:46;;;;;;;103.20;31.67;;;;;;;-0.35;100.00;102369.81;4960259;28;20201;-81
2023/01/26 07:41:12;;;;;;;99.27;30.73;;;;;;;-0.32;100.00;102376.00;4946930;28;20212;-81
2023/01/26 07:43:37;;;;;;;95.10;29.97;;;;;;;-0.30;100.00;102368.59;4934828;28;20186;-81
2023/01/26 07:46:09;;;;;;;95.90;31.20;;;;;;;-0.31;100.00;102381.91;4944932;28;20199;-81
2023/01/26 07:48:35;;;;;;;97.07;30.63;;;;;;;-0.31;100.00;102374.38;4956160;28;20205;-80
2023/01/26 07:51:02;;;;;;;98.00;29.30;;;;;;;-0.29;100.00;102372.84;4961699;28;20219;-82
2023/01/26 07:53:29;;;;;;;84.27;28.33;;;;;;;-0.25;100.00;102372.38;4944905;28;20740;-81
2023/01/26 07:56:05;;;;;;;93.17;29.33;;;;;;;-0.26;100.00;102371.47;4961958;28;20239;-81
2023/01/26 07:58:30;;;;;;;89.63;30.07;;;;;;;-0.25;100.00;102372.38;4962901;28;20211;-83
2023/01/26 08:01:03;;;;;;;96.90;30.10;;;;;;;-0.27;100.00;102367.22;4965283;28;20224;-82
2023/01/26 08:03:29;;;;;;;89.07;29.60;;;;;;;-0.23;100.00;102375.94;4962897;28;20201;-82
2023/01/26 08:05:54;;;;;;;82.40;28.20;;;;;;;-0.23;100.00;102373.41;4968974;28;20212;-81
2023/01/26 08:08:19;;;;;;;84.47;28.80;;;;;;;-0.21;100.00;102374.41;4964859;28;20251;-80
2023/01/26 08:10:45;;;;;;;84.10;27.37;;;;;;;-0.23;100.00;102379.31;4945626;28;20620;-80
2023/01/26 08:13:10;;;;;;;84.93;29.27;;;;;;;-0.20;100.00;102376.16;4968995;28;20759;-82
2023/01/26 08:15:36;;;;;;;85.63;26.47;;;;;;;-0.25;100.00;102380.81;4944650;28;20293;-81
2023/01/26 08:18:03;;;;;;;87.27;27.00;;;;;;;-0.22;100.00;102377.69;4966761;28;20199;-80
2023/01/26 08:20:29;;;;;;;84.57;27.70;;;;;;;-0.20;100.00;102378.69;4943556;28;20835;-80
2023/01/26 08:22:55;;;;;;;82.40;27.57;;;;;;;-0.18;100.00;102372.16;4962006;28;20236;-82
2023/01/26 08:25:20;;;;;;;86.47;27.60;;;;;;;-0.17;100.00;102369.75;4952318;28;20215;-82
2023/01/26 08:27:46;;;;;;;75.40;26.27;;;;;;;-0.13;100.00;102370.94;4945737;28;20198;-82
2023/01/26 08:30:12;;;;;;;87.50;28.30;;;;;;;-0.12;100.00;102365.13;4944079;28;20904;-81
2023/01/26 08:32:37;;;;;;;79.27;28.20;;;;;;;-0.10;100.00;102373.69;4973554;28;20210;-82
2023/01/26 08:35:03;;;;;;;82.43;28.17;;;;;;;-0.08;100.00;102375.59;4968545;28;20220;-82
2023/01/26 08:37:28;;;;;;;77.23;27.47;;;;;;;-0.05;100.00;102374.97;4991020;28;20202;-84
2023/01/26 08:39:54;;;;;;;93.00;27.93;;;;;;;-0.02;100.00;102371.09;4965398;28;20221;-82
2023/01/26 08:42:19;;;;;;;81.40;27.57;;;;;;;0.03;100.00;102375.66;4962223;28;20198;-82
2023/01/26 08:44:45;;;;;;;80.73;28.30;;;;;;;0.07;100.00;102376.03;4965925;28;20190;-83
2023/01/26 08:47:10;;;;;;;73.80;25.33;;;;;;;0.08;100.00;102382.81;4969206;28;20552;-82
2023/01/26 08:49:35;;;;;;;74.40;25.67;;;;;;;0.09;100.00;102385.47;4965052;28;20759;-84
2023/01/26 08:52:01;;;;;;;79.57;27.07;;;;;;;0.11;100.00;102380.56;4970628;28;20188;-83
2023/01/26 08:54:27;;;;;;;68.50;25.50;;;;;;;0.14;100.00;102381.69;4945156;28;20312;-82
2023/01/26 08:56:54;;;;;;;67.67;24.37;;;;;;;0.17;100.00;102383.59;4967407;28;20244;-81
2023/01/26 08:59:19;;;;;;;69.30;25.47;;;;;;;0.19;100.00;102382.09;4962076;28;20216;-82
2023/01/26 09:01:46;;;;;;;68.87;24.47;;;;;;;0.22;100.00;102380.72;4959931;28;20204;-81
2023/01/26 09:04:12;;;;;;;62.27;22.73;;;;;;;0.26;100.00;102379.34;4952807;28;20279;-81
2023/01/26 09:06:37;;;;;;;59.57;21.97;;;;;;;0.29;100.00;102382.13;4947851;28;20623;-81
2023/01/26 09:09:03;;;;;;;60.33;23.53;;;;;;;0.30;100.00;102393.97;4959844;28;20287;-82
2023/01/26 09:11:28;;;;;;;67.77;24.80;;;;;;;0.32;100.00;102394.94;4957447;28;20690;-82
2023/01/26 09:13:56;;;;;;;67.30;24.10;;;;;;;0.32;100.00;102387.41;4957578;28;20695;-81
2023/01/26 09:16:22;;;;;;;57.87;22.17;;;;;;;0.37;100.00;102386.19;4950012;28;20200;-81
2023/01/26 09:18:49;;;;;;;61.30;22.07;;;;;;;0.38;100.00;102385.41;4963839;28;20197;-80
2023/01/26 09:21:15;;;;;;;69.60;24.63;;;;;;;0.32;100.00;102380.75;4963571;28;20299;-81
2023/01/26 09:23:41;;;;;;;64.67;24.13;;;;;;;0.38;100.00;102376.22;4961155;28;20280;-83
2023/01/26 09:26:06;;;;;;;66.67;24.33;;;;;;;0.40;100.00;102381.38;4962395;28;20204;-81
2023/01/26 09:28:32;;;;;;;68.00;22.47;;;;;;;0.45;100.00;102384.31;4958878;28;20223;-81
2023/01/26 09:31:06;;;;;;;66.27;24.77;;;;;;;0.46;100.00;102375.97;4963978;28;20633;-81
2023/01/26 09:33:32;;;;;;;68.23;24.17;;;;;;;0.47;100.00;102374.47;4958360;28;20227;-81
2023/01/26 09:36:09;;;;;;;67.57;23.47;;;;;;;0.46;100.00;102368.44;4952447;28;20669;-82
2023/01/26 09:38:34;;;;;;;72.67;24.97;;;;;;;0.52;100.00;102372.34;4963123;28;20200;-83
2023/01/26 09:41:17;;;;;;;67.33;25.63;;;;;;;0.53;100.00;102374.09;4959270;28;20295;-82
2023/01/26 09:43:49;;;;;;;68.53;23.87;;;;;;;0.49;100.00;102372.06;4964017;28;20198;-82
2023/01/26 09:46:22;;;;;;;67.93;24.97;;;;;;;0.48;100.00;102375.34;4963475;28;20200;-83
2023/01/26 09:49:03;;;;;;;68.13;24.50;;;;;;;0.46;100.00;102374.31;4947745;28;20865;-80
2023/01/26 09:51:34;;;;;;;74.37;26.07;;;;;;;0.50;100.00;102371.31;4969379;28;20200;-83
2023/01/26 09:54:15;;;;;;;79.87;26.87;;;;;;;0.56;100.00;102378.50;4962102;28;20255;-76
2023/01/26 09:56:41;;;;;;;73.17;24.90;;;;;;;0.61;100.00;102378.16;4957439;28;20269;-77
2023/01/26 09:59:39;;;;;;;69.00;24.33;;;;;;;0.62;100.00;102381.53;4956297;28;20232;-79
2023/01/26 10:02:22;;;;;;;62.97;23.60;;;;;;;0.60;100.00;102376.38;4959925;28;20200;-79
2023/01/26 10:04:52;;;;;;;63.80;23.23;;;;;;;0.64;100.00;102365.78;4957506;28;20195;-78
2023/01/26 10:07:18;;;;;;;71.03;24.77;;;;;;;0.61;100.00;102369.69;4953094;28;20280;-78
2023/01/26 10:09:50;;;;;;;69.80;24.20;;;;;;;0.64;100.00;102368.31;4960706;28;20683;-77
2023/01/26 10:12:18;;;;;;;67.17;24.07;;;;;;;0.66;100.00;102363.38;4965721;28;20676;-77
2023/01/26 10:15:09;;;;;;;66.73;23.80;;;;;;;0.73;100.00;102358.13;4958883;28;20233;-78
2023/01/26 10:17:44;;;;;;;67.73;24.10;;;;;;;0.73;100.00;102358.97;4965429;28;20204;-77
2023/01/26 10:20:36;;;;;;;65.40;22.80;;;;;;;0.75;100.00;102349.94;4939182;28;20714;-78
2023/01/26 10:23:09;;;;;;;70.53;25.13;;;;;;;0.80;100.00;102341.09;4969230;28;20271;-78
2023/01/26 10:25:37;;;;;;;66.93;23.03;;;;;;;0.78;100.00;102345.13;4961853;28;20216;-78
2023/01/26 10:28:28;;;;;;;63.40;24.57;;;;;;;0.83;100.00;102348.88;4963244;28;20255;-77
2023/01/26 10:30:53;;;;;;;61.63;22.73;;;;;;;0.93;100.00;102346.38;4964143;28;20230;-78
2023/01/26 10:33:19;;;;;;;60.50;21.53;;;;;;;1.00;100.00;102341.06;4958925;28;20797;-78
2023/01/26 10:35:45;;;;;;;52.90;20.93;;;;;;;1.05;100.00;102327.19;4942078;28;20211;-72
2023/01/26 10:38:27;;;;;;;53.10;20.23;;;;;;;1.25;100.00;102323.75;4953488;28;20304;-71
2023/01/26 10:40:53;;;;;;;49.83;18.67;;;;;;;1.40;100.00;102330.91;4953148;28;20300;-75
2023/01/26 10:43:19;;;;;;;55.87;19.23;;;;;;;1.44;100.00;102339.59;4952302;28;20276;-77
2023/01/26 10:45:46;;;;;;;42.90;17.57;;;;;;;1.42;100.00;102336.94;4949545;28;20252;-76
2023/01/26 10:48:18;;;;;;;46.10;17.60;;;;;;;1.37;100.00;102330.66;4961779;28;20232;-76
2023/01/26 10:50:46;;;;;;;44.03;16.73;;;;;;;1.37;100.00;102329.78;4954643;28;20706;-77
2023/01/26 10:53:23;;;;;;;38.50;15.67;;;;;;;1.37;100.00;102329.78;4959579;28;20228;-79
2023/01/26 10:56:06;;;;;;;43.43;17.43;;;;;;;1.38;100.00;102329.88;4958948;28;20240;-79
2023/01/26 10:58:43;;;;;;;39.27;15.43;;;;;;;1.41;100.00;102321.66;4962347;28;20196;-76
2023/01/26 11:01:11;;;;;;;42.83;16.90;;;;;;;1.39;100.00;102325.72;4954126;28;20252;-79
2023/01/26 11:03:40;;;;;;;42.20;16.83;;;;;;;1.43;100.00;102326.09;4943799;28;20264;-77
2023/01/26 11:06:12;;;;;;;37.37;16.27;;;;;;;1.46;100.00;102326.31;4953312;28;20203;-76
2023/01/26 11:08:38;;;;;;;44.13;16.77;;;;;;;1.47;100.00;102329.75;4964878;28;20639;-77
2023/01/26 11:11:09;;;;;;;40.83;16.27;;;;;;;1.47;100.00;102329.75;4967534;28;20224;-77
2023/01/26 11:13:35;;;;;;;40.20;16.87;;;;;;;1.42;100.00;102329.38;4945915;28;20271;-77
2023/01/26 11:16:21;;;;;;;38.13;16.03;;;;;;;1.44;100.00;102332.00;4965098;28;20188;-76
2023/01/26 11:19:06;;;;;;;42.50;17.60;;;;;;;1.43;100.00;102325.22;4957095;28;20211;-77
2023/01/26 11:21:40;;;;;;;38.90;17.07;;;;;;;1.39;100.00;102318.16;4942847;28;20199;-77
2023/01/26 11:24:24;;;;;;;47.30;17.80;;;;;;;1.41;100.00;102322.56;4944333;28;20285;-77
2023/01/26 11:27:16;;;;;;;40.00;15.93;;;;;;;1.46;100.00;102317.91;4957565;28;20209;-77
2023/01/26 11:29:54;;;;;;;39.30;15.97;;;;;;;1.45;100.00;102324.56;4954373;28;20218;-76
2023/01/26 11:32:26;;;;;;;39.37;15.57;;;;;;;1.47;100.00;102320.50;4958896;28;20205;-77
2023/01/26 11:35:19;;;;;;;42.83;16.90;;;;;;;1.49;100.00;102316.50;4959399;28;20260;-76
2023/01/26 11:37:54;;;;;;;40.93;16.97;;;;;;;1.47;100.00;102302.84;4959438;28;20197;-78
2023/01/26 11:40:38;;;;;;;42.43;16.50;;;;;;;1.46;100.00;102318.75;4945959;28;20561;-76
2023/01/26 11:43:28;;;;;;;38.87;16.20;;;;;;;1.47;100.00;102312.09;4959185;28;20212;-76
2023/01/26 11:46:29;;;;;;;43.17;17.33;;;;;;;1.48;100.00;102306.28;4961131;28;20201;-77
2023/01/26 11:49:28;;;;;;;41.53;17.60;;;;;;;1.50;100.00;102294.63;4941415;29;20245;-77
2023/01/26 11:52:08;;;;;;;41.50;17.10;;;;;;;1.54;100.00;102291.59;4959303;28;20197;-76
2023/01/26 11:54:43;;;;;;;41.90;18.20;;;;;;;1.57;100.00;102289.31;4959648;28;20218;-77
2023/01/26 11:57:26;;;;;;;49.67;18.50;;;;;;;1.61;100.00;102288.81;4945761;29;20197;-77
2023/01/26 12:00:00;;;;;;;43.87;17.50;;;;;;;1.58;100.00;102286.94;4964065;28;20226;-77
2023/01/26 12:02:36;;;;;;;48.33;18.70;;;;;;;1.62;100.00;102280.47;4958468;28;20724;-77
2023/01/26 12:05:25;;;;;;;42.60;17.33;;;;;;;1.65;100.00;102273.16;4943707;28;20196;-77